createdAt,value
2019-04-03T00:02:02.666Z,18.83
2019-04-03T00:04:31.184Z,17.90
2019-04-03T00:06:58.970Z,20.43
2019-04-03T00:09:26.897Z,17.83
2019-04-03T00:11:54.799Z,22.83
2019-04-03T00:14:22.868Z,22.60
2019-04-03T00:16:50.795Z,21.30
2019-04-03T00:19:18.792Z,19.33
2019-04-03T00:21:46.901Z,20.00
2019-04-03T00:24:14.938Z,19.00
2019-04-03T00:26:42.711Z,20.07
2019-04-03T00:29:10.632Z,21.10
2019-04-03T00:31:38.646Z,19.87
2019-04-03T00:34:06.657Z,20.67
2019-04-03T00:36:34.590Z,19.63
2019-04-03T00:39:04.563Z,20.83
2019-04-03T00:41:34.514Z,18.67
2019-04-03T00:44:02.379Z,20.00
2019-04-03T00:46:30.331Z,20.30
2019-04-03T00:48:58.400Z,22.77
2019-04-03T00:51:27.520Z,20.77
2019-04-03T00:53:58.007Z,19.53
2019-04-03T00:56:26.703Z,20.00
2019-04-03T00:58:55.386Z,19.97
2019-04-03T01:01:26.135Z,20.47
2019-04-03T01:03:53.763Z,21.93
2019-04-03T01:06:21.801Z,20.40
2019-04-03T01:08:49.923Z,21.17
2019-04-03T01:11:17.978Z,20.63
2019-04-03T01:13:45.748Z,21.67
2019-04-03T01:16:13.671Z,21.10
2019-04-03T01:18:41.685Z,22.30
2019-04-03T01:21:09.862Z,21.10
2019-04-03T01:23:38.224Z,21.67
2019-04-03T01:26:06.169Z,20.73
2019-04-03T01:28:34.243Z,20.87
2019-04-03T01:31:02.214Z,20.50
2019-04-03T01:33:31.221Z,20.37
2019-04-03T01:35:59.446Z,21.03
2019-04-03T01:38:27.406Z,20.93
2019-04-03T01:40:55.628Z,23.17
2019-04-03T01:43:23.773Z,25.77
2019-04-03T01:45:51.971Z,21.50
2019-04-03T01:48:19.812Z,22.07
2019-04-03T01:50:47.975Z,23.50
2019-04-03T01:53:16.059Z,22.27
2019-04-03T01:55:44.084Z,24.90
2019-04-03T01:58:12.087Z,25.47
2019-04-03T02:00:40.056Z,22.93
2019-04-03T02:03:10.315Z,22.37
2019-04-03T02:05:39.790Z,21.73
2019-04-03T02:08:07.765Z,20.90
2019-04-03T02:10:36.007Z,24.80
2019-04-03T02:13:03.972Z,23.00
2019-04-03T02:15:31.954Z,27.80
2019-04-03T02:17:59.903Z,23.03
2019-04-03T02:20:28.320Z,22.53
2019-04-03T02:22:56.244Z,22.07
2019-04-03T02:25:24.205Z,21.57
2019-04-03T02:27:52.051Z,23.80
2019-04-03T02:30:19.989Z,22.13
2019-04-03T02:32:48.493Z,22.17
2019-04-03T02:35:16.961Z,23.80
2019-04-03T02:37:48.383Z,24.07
2019-04-03T02:40:14.961Z,26.57
2019-04-03T02:42:43.305Z,23.83
2019-04-03T02:45:11.479Z,22.57
2019-04-03T02:47:39.519Z,24.33
2019-04-03T02:50:07.862Z,25.50
2019-04-03T02:52:36.782Z,22.83
2019-04-03T02:55:07.415Z,23.90
2019-04-03T02:57:35.165Z,23.43
2019-04-03T03:00:03.679Z,26.53
2019-04-03T03:02:31.624Z,23.93
2019-04-03T03:05:00.144Z,22.53
2019-04-03T03:07:27.968Z,22.40
2019-04-03T03:09:56.481Z,24.40
2019-04-03T03:12:27.147Z,21.90
2019-04-03T03:14:55.050Z,27.27
2019-04-03T03:17:24.201Z,22.73
2019-04-03T03:19:52.514Z,23.47
2019-04-03T03:22:20.470Z,24.63
2019-04-03T03:24:48.913Z,21.47
2019-04-03T03:27:17.114Z,23.10
2019-04-03T03:29:45.357Z,23.63
2019-04-03T03:32:19.832Z,24.77
2019-04-03T03:34:54.069Z,24.97
2019-04-03T03:37:15.560Z,24.00
2019-04-03T03:39:44.575Z,28.57
2019-04-03T03:42:14.050Z,24.20
2019-04-03T03:44:45.481Z,24.67
2019-04-03T03:47:12.684Z,25.17
2019-04-03T03:49:41.104Z,25.63
2019-04-03T03:52:09.128Z,27.67
2019-04-03T03:54:37.839Z,29.60
2019-04-03T03:57:07.193Z,25.10
2019-04-03T03:59:36.739Z,22.70
2019-04-03T04:02:06.102Z,24.80
2019-04-03T04:04:34.447Z,28.20
2019-04-03T04:07:04.508Z,23.97
2019-04-03T04:09:32.821Z,26.73
2019-04-03T04:12:04.546Z,23.67
2019-04-03T04:14:31.204Z,25.33
2019-04-03T04:16:59.261Z,25.97
2019-04-03T04:19:30.191Z,31.43
2019-04-03T04:21:57.555Z,34.57
2019-04-03T04:24:27.648Z,27.00
2019-04-03T04:26:55.529Z,30.30
2019-04-03T04:29:23.996Z,27.70
2019-04-03T04:31:51.911Z,25.67
2019-04-03T04:34:19.917Z,30.00
2019-04-03T04:36:47.796Z,26.03
2019-04-03T04:39:15.695Z,26.17
2019-04-03T04:41:43.649Z,28.93
2019-04-03T04:44:14.203Z,31.77
2019-04-03T04:46:43.609Z,32.87
2019-04-03T04:49:11.814Z,36.17
2019-04-03T04:51:41.403Z,35.67
2019-04-03T04:54:09.525Z,38.57
2019-04-03T04:56:38.415Z,29.43
2019-04-03T04:59:06.417Z,30.67
2019-04-03T05:01:34.635Z,26.23
2019-04-03T05:04:02.706Z,36.53
2019-04-03T05:06:30.690Z,31.93
2019-04-03T05:08:59.220Z,27.43
2019-04-03T05:11:27.305Z,35.07
2019-04-03T05:13:55.211Z,31.27
2019-04-03T05:16:25.048Z,26.83
2019-04-03T05:18:53.688Z,30.27
2019-04-03T05:21:22.332Z,32.60
2019-04-03T05:23:50.754Z,31.30
2019-04-03T05:26:20.946Z,30.83
2019-04-03T05:28:57.094Z,29.90
2019-04-03T05:31:21.379Z,31.33
2019-04-03T05:33:49.295Z,30.63
2019-04-03T05:36:18.314Z,31.53
2019-04-03T05:38:46.323Z,35.70
2019-04-03T05:41:14.368Z,33.27
2019-04-03T05:43:42.468Z,30.47
2019-04-03T05:46:10.568Z,31.07
2019-04-03T05:48:38.499Z,31.27
2019-04-03T05:51:06.406Z,33.53
2019-04-03T05:53:36.619Z,27.53
2019-04-03T05:56:04.453Z,28.83
2019-04-03T05:58:32.495Z,28.67
2019-04-03T06:01:05.432Z,29.73
2019-04-03T06:03:39.227Z,31.43
2019-04-03T06:06:02.042Z,30.00
2019-04-03T06:08:30.215Z,32.23
2019-04-03T06:10:58.055Z,33.40
2019-04-03T06:13:26.052Z,30.17
2019-04-03T06:15:54.179Z,33.60
2019-04-03T06:18:22.167Z,34.90
2019-04-03T06:20:50.071Z,29.43
2019-04-03T06:23:20.972Z,30.80
2019-04-03T06:25:48.008Z,31.63
2019-04-03T06:28:15.880Z,26.20
2019-04-03T06:30:43.741Z,27.07
2019-04-03T06:33:11.634Z,35.87
2019-04-03T06:35:39.538Z,30.30
2019-04-03T06:38:07.522Z,34.07
2019-04-03T06:40:36.327Z,33.30
2019-04-03T06:43:04.367Z,38.07
2019-04-03T06:45:32.617Z,31.47
2019-04-03T06:48:00.671Z,34.10
2019-04-03T06:50:28.771Z,31.73
2019-04-03T06:52:56.755Z,34.80
2019-04-03T06:55:25.507Z,28.13
2019-04-03T06:57:54.154Z,32.73
2019-04-03T07:00:22.050Z,33.20
2019-04-03T07:02:50.141Z,31.57
2019-04-03T07:05:18.279Z,31.53
2019-04-03T07:07:46.304Z,28.57
2019-04-03T07:10:24.805Z,33.20
2019-04-03T07:12:46.427Z,29.87
2019-04-03T07:15:15.354Z,27.73
2019-04-03T07:17:43.590Z,28.40
2019-04-03T07:20:14.170Z,30.90
2019-04-03T07:22:42.008Z,27.23
2019-04-03T07:25:10.184Z,31.57
2019-04-03T07:27:41.271Z,30.93
2019-04-03T07:30:08.334Z,40.83
2019-04-03T07:32:36.225Z,31.67
2019-04-03T07:35:08.920Z,25.63
2019-04-03T07:37:35.068Z,30.83
2019-04-03T07:40:03.480Z,31.73
2019-04-03T07:42:31.410Z,33.13
2019-04-03T07:45:01.411Z,28.10
2019-04-03T07:47:29.622Z,29.03
2019-04-03T07:49:57.613Z,32.63
2019-04-03T07:52:25.931Z,24.97
2019-04-03T07:54:56.643Z,34.90
2019-04-03T07:57:25.065Z,29.80
2019-04-03T07:59:53.264Z,37.03
2019-04-03T08:02:21.366Z,30.93
2019-04-03T08:04:49.427Z,32.53
2019-04-03T08:07:17.519Z,38.93
2019-04-03T08:09:45.525Z,36.40
2019-04-03T08:12:13.643Z,36.03
2019-04-03T08:14:41.994Z,38.50
2019-04-03T08:17:10.062Z,27.67
2019-04-03T08:19:37.990Z,28.40
2019-04-03T08:22:05.996Z,32.00
2019-04-03T08:24:33.945Z,29.97
2019-04-03T08:27:01.828Z,33.50
2019-04-03T08:29:31.062Z,26.17
2019-04-03T08:31:59.780Z,32.43
2019-04-03T08:34:30.678Z,24.33
2019-04-03T08:36:57.795Z,24.43
2019-04-03T08:39:26.217Z,24.57
2019-04-03T08:41:56.036Z,23.90
2019-04-03T08:44:23.979Z,30.77
2019-04-03T08:46:51.958Z,21.95
2019-04-03T08:49:20.251Z,19.80
2019-04-03T08:51:49.549Z,20.97
2019-04-03T08:54:17.908Z,19.75
2019-04-03T08:56:48.332Z,21.37
2019-04-03T08:59:15.965Z,24.93
2019-04-03T09:01:44.225Z,26.57
2019-04-03T09:04:12.241Z,18.10
2019-04-03T09:06:40.183Z,17.30
2019-04-03T09:09:09.610Z,18.73
2019-04-03T09:11:38.163Z,18.23
2019-04-03T09:14:06.402Z,15.77
2019-04-03T09:16:35.718Z,15.50
2019-04-03T09:19:03.880Z,15.33
2019-04-03T09:21:32.130Z,14.13
2019-04-03T09:24:00.375Z,15.40
2019-04-03T09:26:28.318Z,14.20
2019-04-03T09:28:56.506Z,15.87
2019-04-03T09:31:24.751Z,14.67
2019-04-03T09:33:52.694Z,15.90
2019-04-03T09:36:21.714Z,16.47
2019-04-03T09:38:49.965Z,18.37
2019-04-03T09:41:19.230Z,15.00
2019-04-03T09:43:47.985Z,16.70
2019-04-03T09:46:15.961Z,15.07
2019-04-03T09:48:43.834Z,18.97
2019-04-03T09:51:12.116Z,16.60
2019-04-03T09:53:40.199Z,17.73
2019-04-03T09:56:08.631Z,16.63
2019-04-03T09:58:36.743Z,19.43
2019-04-03T10:01:05.035Z,20.97
2019-04-03T10:03:34.144Z,16.03
2019-04-03T10:06:02.777Z,15.13
2019-04-03T10:08:30.818Z,18.23
2019-04-03T10:10:59.134Z,17.40
2019-04-03T10:13:26.991Z,16.03
2019-04-03T10:15:56.005Z,15.83
2019-04-03T10:18:23.904Z,15.17
2019-04-03T10:20:52.126Z,17.27
2019-04-03T10:23:20.072Z,17.20
2019-04-03T10:25:48.093Z,12.87
2019-04-03T10:28:16.404Z,12.20
2019-04-03T10:30:45.153Z,9.57
2019-04-03T10:33:13.207Z,10.80
2019-04-03T10:35:41.068Z,10.63
2019-04-03T10:38:09.131Z,9.23
2019-04-03T10:40:37.532Z,6.73
2019-04-03T10:43:06.342Z,6.87
2019-04-03T10:45:34.852Z,7.67
2019-04-03T10:48:03.939Z,7.80
2019-04-03T10:50:31.946Z,7.43
2019-04-03T10:53:00.164Z,7.90
2019-04-03T10:55:29.367Z,7.80
2019-04-03T10:57:57.754Z,12.53
2019-04-03T11:00:28.627Z,8.83
2019-04-03T11:02:56.275Z,8.33
2019-04-03T11:05:24.360Z,8.00
2019-04-03T11:07:52.531Z,8.37
2019-04-03T11:10:23.456Z,8.33
2019-04-03T11:12:50.968Z,8.23
2019-04-03T11:15:19.103Z,7.53
2019-04-03T11:17:49.364Z,7.50
2019-04-03T11:20:17.352Z,7.37
2019-04-03T11:22:48.993Z,7.37
2019-04-03T11:25:17.387Z,7.40
2019-04-03T11:27:46.164Z,7.20
2019-04-03T11:30:54.599Z,8.37
2019-04-03T11:32:45.192Z,8.13
2019-04-03T11:35:13.813Z,7.83
2019-04-03T11:37:41.897Z,7.57
2019-04-03T11:40:10.575Z,7.33
2019-04-03T11:42:38.452Z,7.17
2019-04-03T11:45:06.992Z,6.97
2019-04-03T11:47:35.000Z,7.60
2019-04-03T11:50:03.539Z,7.67
2019-04-03T11:52:31.975Z,8.10
2019-04-03T11:55:00.279Z,7.72
2019-04-03T11:57:28.661Z,8.68
2019-04-03T11:59:57.038Z,7.75
2019-04-03T12:02:26.028Z,7.83
2019-04-03T12:04:54.479Z,8.35
2019-04-03T12:07:24.459Z,8.00
2019-04-03T12:09:52.339Z,8.08
2019-04-03T12:12:21.578Z,7.70
2019-04-03T12:14:50.166Z,7.50
2019-04-03T12:17:20.108Z,7.80
2019-04-03T12:19:48.714Z,8.15
2019-04-03T12:22:16.928Z,7.72
2019-04-03T12:24:45.219Z,7.25
2019-04-03T12:27:14.040Z,7.87
2019-04-03T12:29:43.283Z,7.28
2019-04-03T12:32:11.283Z,6.85
2019-04-03T12:34:39.556Z,8.58
2019-04-03T12:37:07.769Z,8.08
2019-04-03T12:39:35.806Z,7.80
2019-04-03T12:42:08.322Z,9.17
2019-04-03T12:44:35.651Z,5.90
2019-04-03T12:47:06.906Z,7.73
2019-04-03T12:49:33.449Z,6.20
2019-04-03T12:52:03.707Z,6.90
2019-04-03T12:54:31.290Z,8.97
2019-04-03T12:57:01.649Z,7.00
2019-04-03T12:59:29.386Z,8.30
2019-04-03T13:01:57.551Z,6.10
2019-04-03T13:04:28.232Z,5.30
2019-04-03T13:06:55.643Z,6.60
2019-04-03T13:09:23.605Z,7.03
2019-04-03T13:11:51.968Z,6.47
2019-04-03T13:14:25.097Z,6.45
2019-04-03T13:16:49.771Z,6.50
2019-04-03T13:19:17.839Z,5.65
2019-04-03T13:21:46.076Z,5.40
2019-04-03T13:24:15.832Z,8.18
2019-04-03T13:26:44.133Z,5.92
2019-04-03T13:29:12.206Z,5.60
2019-04-03T13:31:40.711Z,5.87
2019-04-03T13:34:11.833Z,7.37
2019-04-03T13:36:39.934Z,9.83
2019-04-03T13:39:07.959Z,5.35
2019-04-03T13:41:35.878Z,5.10
2019-04-03T13:44:03.903Z,5.03
2019-04-03T13:46:32.469Z,4.43
2019-04-03T13:49:00.568Z,4.70
2019-04-03T13:51:30.556Z,6.67
2019-04-03T13:53:58.447Z,4.33
2019-04-03T13:56:26.842Z,4.60
2019-04-03T13:58:55.913Z,5.80
2019-04-03T14:01:27.672Z,4.13
2019-04-03T14:03:55.564Z,4.37
2019-04-03T14:06:24.106Z,4.40
2019-04-03T14:08:52.010Z,8.03
2019-04-03T14:11:19.974Z,6.70
2019-04-03T14:13:48.388Z,6.17
2019-04-03T14:16:21.350Z,4.70
2019-04-03T14:18:45.989Z,4.47
2019-04-03T14:21:14.098Z,6.27
2019-04-03T14:23:42.056Z,5.17
2019-04-03T14:26:12.987Z,3.90
2019-04-03T14:28:41.955Z,4.50
2019-04-03T14:31:10.503Z,7.03
2019-04-03T14:33:44.182Z,10.07
2019-04-03T14:36:08.481Z,5.30
2019-04-03T14:38:36.583Z,10.30
2019-04-03T14:41:04.723Z,11.30
2019-04-03T14:43:34.459Z,8.33
2019-04-03T14:46:02.903Z,10.83
2019-04-03T14:48:31.788Z,5.67
2019-04-03T14:50:59.971Z,4.07
2019-04-03T14:53:28.252Z,4.60
2019-04-03T14:55:56.315Z,3.70
2019-04-03T14:58:26.896Z,6.93
2019-04-03T15:00:54.422Z,4.10
2019-04-03T15:03:22.787Z,5.27
2019-04-03T15:05:51.279Z,3.47
2019-04-03T15:08:20.306Z,3.20
2019-04-03T15:10:50.209Z,4.03
2019-04-03T15:13:19.069Z,3.73
2019-04-03T15:15:46.946Z,4.30
2019-04-03T15:18:15.299Z,5.33
2019-04-03T15:20:43.432Z,4.20
2019-04-03T15:23:12.070Z,3.77
2019-04-03T15:25:42.550Z,3.70
2019-04-03T15:28:10.355Z,3.83
2019-04-03T15:30:41.638Z,5.80
2019-04-03T15:33:09.046Z,3.67
2019-04-03T15:35:37.463Z,4.33
2019-04-03T15:38:05.335Z,4.13
2019-04-03T15:40:33.302Z,4.73
2019-04-03T15:43:01.771Z,4.60
2019-04-03T15:45:29.876Z,4.23
2019-04-03T15:47:58.458Z,5.23
2019-04-03T15:50:27.912Z,5.37
2019-04-03T15:52:56.639Z,5.10
2019-04-03T15:55:25.413Z,4.40
2019-04-03T15:57:53.998Z,4.93
2019-04-03T16:00:22.453Z,4.33
2019-04-03T16:02:50.320Z,4.40
2019-04-03T16:05:18.824Z,4.13
2019-04-03T16:07:47.337Z,4.07
2019-04-03T16:10:15.527Z,4.27
2019-04-03T16:12:44.132Z,4.50
2019-04-03T16:15:12.794Z,4.37
2019-04-03T16:17:40.730Z,4.37
2019-04-03T16:20:08.815Z,5.03
2019-04-03T16:22:36.912Z,7.50
2019-04-03T16:25:05.261Z,8.53
2019-04-03T16:27:33.311Z,5.30
2019-04-03T16:30:01.319Z,6.47
2019-04-03T16:32:29.365Z,5.77
2019-04-03T16:34:57.916Z,6.13
2019-04-03T16:37:25.938Z,6.17
2019-04-03T16:39:54.141Z,7.37
2019-04-03T16:42:22.681Z,6.27
2019-04-03T16:44:50.979Z,6.60
2019-04-03T16:47:19.198Z,6.30
2019-04-03T16:49:47.560Z,8.73
2019-04-03T16:52:15.854Z,6.37
2019-04-03T16:54:44.998Z,5.90
2019-04-03T16:57:13.774Z,5.60
2019-04-03T16:59:41.881Z,6.77
2019-04-03T17:02:09.976Z,6.07
2019-04-03T17:04:37.935Z,5.80
2019-04-03T17:07:06.300Z,6.37
2019-04-03T17:09:37.479Z,5.93
2019-04-03T17:12:04.074Z,6.37
2019-04-03T17:14:33.192Z,5.80
2019-04-03T17:17:01.200Z,6.83
2019-04-03T17:19:29.607Z,6.43
2019-04-03T17:21:57.677Z,6.20
2019-04-03T17:24:25.897Z,6.47
2019-04-03T17:26:58.533Z,7.60
2019-04-03T17:29:24.789Z,7.83
2019-04-03T17:31:52.998Z,6.30
2019-04-03T17:34:22.123Z,7.27
2019-04-03T17:36:52.677Z,5.90
2019-04-03T17:39:20.171Z,6.97
2019-04-03T17:41:48.237Z,7.70
2019-04-03T17:44:16.311Z,7.90
2019-04-03T17:46:44.271Z,8.93
2019-04-03T17:49:12.292Z,7.83
2019-04-03T17:51:40.255Z,9.10
2019-04-03T17:54:09.284Z,7.97
2019-04-03T17:56:37.422Z,7.70
2019-04-03T17:59:05.374Z,8.77
2019-04-03T18:01:33.593Z,8.13
2019-04-03T18:04:01.579Z,9.13
2019-04-03T18:06:29.642Z,8.73
2019-04-03T18:08:57.502Z,9.30
2019-04-03T18:11:25.722Z,12.60
2019-04-03T18:13:54.973Z,9.40
2019-04-03T18:16:23.835Z,8.53
2019-04-03T18:18:51.738Z,10.80
2019-04-03T18:21:19.952Z,9.70
2019-04-03T18:23:47.912Z,9.13
2019-04-03T18:26:16.158Z,9.47
2019-04-03T18:28:44.125Z,8.97
2019-04-03T18:31:13.615Z,10.07
2019-04-03T18:33:41.902Z,12.97
2019-04-03T18:36:10.109Z,15.07
2019-04-03T18:38:39.689Z,9.27
2019-04-03T18:41:07.567Z,7.97
2019-04-03T18:43:35.339Z,7.80
2019-04-03T18:46:03.642Z,8.87
2019-04-03T18:48:31.580Z,9.00
2019-04-03T18:50:59.535Z,8.43
2019-04-03T18:53:27.442Z,7.93
2019-04-03T18:55:55.666Z,8.50
2019-04-03T18:58:24.352Z,8.87
2019-04-03T19:00:53.454Z,10.73
2019-04-03T19:03:21.389Z,8.50
2019-04-03T19:05:49.685Z,8.83
2019-04-03T19:08:18.165Z,10.47
2019-04-03T19:10:46.770Z,7.93
2019-04-03T19:13:14.781Z,9.10
2019-04-03T19:15:42.863Z,9.03
2019-04-03T19:18:19.414Z,8.47
2019-04-03T19:20:41.491Z,9.07
2019-04-03T19:23:10.986Z,9.50
2019-04-03T19:25:39.255Z,8.57
2019-04-03T19:28:07.185Z,9.13
2019-04-03T19:30:36.119Z,9.07
2019-04-03T19:33:05.060Z,9.27
2019-04-03T19:35:33.007Z,9.80
2019-04-03T19:38:04.609Z,9.17
2019-04-03T19:40:31.386Z,10.37
2019-04-03T19:42:59.446Z,13.03
2019-04-03T19:45:27.535Z,11.63
2019-04-03T19:47:55.632Z,9.77
2019-04-03T19:50:24.553Z,9.93
2019-04-03T19:52:52.800Z,9.87
2019-04-03T19:55:23.256Z,8.70
2019-04-03T19:57:50.519Z,11.73
2019-04-03T20:00:18.605Z,8.63
2019-04-03T20:02:46.445Z,8.90
2019-04-03T20:05:14.260Z,8.47
2019-04-03T20:07:42.287Z,8.20
2019-04-03T20:10:10.871Z,8.30
2019-04-03T20:12:39.954Z,8.93
2019-04-03T20:15:08.157Z,8.13
2019-04-03T20:17:37.242Z,12.20
2019-04-03T20:20:05.516Z,10.53
2019-04-03T20:22:33.468Z,11.43
2019-04-03T20:25:01.495Z,11.57
2019-04-03T20:27:29.594Z,11.30
2019-04-03T20:29:58.902Z,11.73
2019-04-03T20:32:27.367Z,11.37
2019-04-03T20:34:55.277Z,10.90
2019-04-03T20:37:25.914Z,10.90
2019-04-03T20:39:53.213Z,10.47
2019-04-03T20:42:21.252Z,10.73
2019-04-03T20:44:49.320Z,9.97
2019-04-03T20:47:17.223Z,9.80
2019-04-03T20:49:45.201Z,9.53
2019-04-03T20:52:13.376Z,9.93
2019-04-03T20:54:41.499Z,9.60
2019-04-03T20:57:09.295Z,10.70
2019-04-03T20:59:38.165Z,10.63
2019-04-03T21:02:08.073Z,10.57
2019-04-03T21:04:36.151Z,10.50
2019-04-03T21:07:04.001Z,10.10
2019-04-03T21:09:31.973Z,9.67
2019-04-03T21:11:59.893Z,8.63
2019-04-03T21:14:28.062Z,10.63
2019-04-03T21:16:56.263Z,10.53
2019-04-03T21:19:24.368Z,9.47
2019-04-03T21:21:52.581Z,8.27
2019-04-03T21:24:20.519Z,9.40
2019-04-03T21:26:48.574Z,10.10
2019-04-03T21:29:17.379Z,9.97
2019-04-03T21:31:45.526Z,9.83
2019-04-03T21:34:13.687Z,9.00
2019-04-03T21:36:41.678Z,9.53
2019-04-03T21:39:10.989Z,8.80
2019-04-03T21:41:39.777Z,9.33
2019-04-03T21:44:07.829Z,8.97
2019-04-03T21:46:35.913Z,8.47
2019-04-03T21:49:03.975Z,9.47
2019-04-03T21:51:31.894Z,8.37
2019-04-03T21:54:00.152Z,9.10
2019-04-03T21:56:28.210Z,8.00
2019-04-03T21:58:56.126Z,7.70
2019-04-03T22:01:25.813Z,9.67
2019-04-03T22:03:53.985Z,7.97
2019-04-03T22:06:22.268Z,6.53
2019-04-03T22:08:52.013Z,8.27
2019-04-03T22:11:20.021Z,7.50
2019-04-03T22:13:49.521Z,7.30
2019-04-03T22:16:20.407Z,8.43
2019-04-03T22:18:48.510Z,7.10
2019-04-03T22:21:17.675Z,8.20
2019-04-03T22:23:45.720Z,8.23
2019-04-03T22:26:13.962Z,8.93
2019-04-03T22:28:41.880Z,9.60
2019-04-03T22:31:09.512Z,8.77
2019-04-03T22:33:37.355Z,8.73
2019-04-03T22:36:05.432Z,10.30
2019-04-03T22:38:33.193Z,9.43
2019-04-03T22:41:01.363Z,10.90
2019-04-03T22:43:29.095Z,10.37
2019-04-03T22:45:57.221Z,11.60
2019-04-03T22:48:27.482Z,8.83
2019-04-03T22:50:55.032Z,8.70
2019-04-03T22:53:23.118Z,7.97
2019-04-03T22:55:51.538Z,8.17
2019-04-03T22:58:21.499Z,8.37
2019-04-03T23:00:49.684Z,8.93
2019-04-03T23:03:17.565Z,9.40
2019-04-03T23:05:47.740Z,10.47
2019-04-03T23:08:16.434Z,7.63
2019-04-03T23:10:44.500Z,10.73
2019-04-03T23:13:12.399Z,7.87
2019-04-03T23:15:40.215Z,7.93
2019-04-03T23:18:08.106Z,7.30
2019-04-03T23:20:36.182Z,9.57
2019-04-03T23:23:04.224Z,8.90
2019-04-03T23:25:32.294Z,8.87
2019-04-03T23:28:02.806Z,10.97
2019-04-03T23:30:30.083Z,9.40
2019-04-03T23:32:57.905Z,9.37
2019-04-03T23:35:26.001Z,14.73
2019-04-03T23:37:55.807Z,15.13
2019-04-03T23:40:23.981Z,9.73
2019-04-03T23:42:51.975Z,11.30
2019-04-03T23:45:20.769Z,8.80
2019-04-03T23:47:48.856Z,9.60
2019-04-03T23:50:17.195Z,8.43
2019-04-03T23:52:45.018Z,9.03
2019-04-03T23:55:12.980Z,9.53
2019-04-03T23:57:41.068Z,9.60
